createdAt,value
2023-05-25T03:00:54.667Z,111.55
2023-05-25T03:03:22.047Z,14.38
2023-05-25T03:05:49.565Z,15.55
2023-05-25T03:08:17.364Z,19.05
2023-05-25T03:10:45.359Z,16.33
2023-05-25T03:13:12.628Z,13.55
2023-05-25T03:15:40.425Z,15.73
2023-05-25T03:18:07.692Z,15.02
2023-05-25T03:20:35.090Z,17.67
2023-05-25T03:23:02.439Z,15.90
2023-05-25T03:25:29.691Z,16.30
2023-05-25T03:27:57.320Z,15.65
2023-05-25T03:30:24.614Z,21.60
2023-05-25T03:32:52.569Z,14.75
2023-05-25T03:35:20.071Z,16.42
2023-05-25T03:37:47.299Z,16.13
2023-05-25T03:40:14.563Z,16.15
2023-05-25T03:42:41.815Z,16.20
2023-05-25T03:45:09.399Z,19.55
2023-05-25T03:47:37.220Z,17.10
2023-05-25T03:50:07.054Z,16.65
2023-05-25T03:52:34.469Z,17.55
2023-05-25T03:55:05.247Z,19.85
2023-05-25T03:57:32.543Z,15.93
2023-05-25T03:59:59.817Z,17.63
2023-05-25T04:02:27.205Z,15.27
2023-05-25T04:04:56.204Z,16.67
2023-05-25T04:07:23.442Z,19.40
2023-05-25T04:09:50.777Z,16.65
2023-05-25T04:12:18.159Z,18.42
2023-05-25T04:14:46.324Z,19.95
2023-05-25T04:17:13.710Z,16.83
2023-05-25T04:19:40.933Z,20.58
2023-05-25T04:22:08.153Z,21.38
2023-05-25T04:24:35.322Z,17.05
2023-05-25T04:27:02.665Z,18.52
2023-05-25T04:29:30.272Z,17.27
2023-05-25T04:31:57.918Z,20.20
2023-05-25T04:34:25.344Z,23.27
2023-05-25T04:36:53.687Z,24.25
2023-05-25T04:39:20.902Z,19.88
2023-05-25T04:41:48.484Z,19.10
2023-05-25T04:44:15.652Z,22.27
2023-05-25T04:46:44.685Z,18.50
2023-05-25T04:49:13.297Z,20.98
2023-05-25T04:51:40.574Z,20.30
2023-05-25T04:54:08.480Z,22.88
2023-05-25T04:56:35.719Z,22.88
2023-05-25T04:59:04.343Z,19.77
2023-05-25T05:01:31.690Z,22.20
2023-05-25T05:03:59.041Z,22.85
2023-05-25T05:06:26.332Z,22.98
2023-05-25T05:08:53.568Z,22.05
2023-05-25T05:11:20.828Z,23.35
2023-05-25T05:13:48.034Z,20.73
2023-05-25T05:16:15.317Z,19.25
2023-05-25T05:18:42.652Z,19.50
2023-05-25T05:21:09.820Z,22.10
2023-05-25T05:23:37.016Z,19.88
2023-05-25T05:26:05.120Z,22.95
2023-05-25T05:28:32.373Z,24.73
2023-05-25T05:30:59.676Z,19.17
2023-05-25T05:33:27.075Z,22.20
2023-05-25T05:35:54.700Z,21.55
2023-05-25T05:38:21.945Z,18.42
2023-05-25T05:40:49.196Z,22.75
2023-05-25T05:43:16.480Z,19.67
2023-05-25T05:45:44.071Z,22.10
2023-05-25T05:48:11.399Z,21.30
2023-05-25T05:50:41.073Z,22.98
2023-05-25T05:53:10.062Z,17.13
2023-05-25T05:55:37.586Z,15.18
2023-05-25T05:58:04.822Z,19.55
2023-05-25T06:00:32.076Z,18.13
2023-05-25T06:03:00.880Z,16.55
2023-05-25T06:05:28.533Z,13.23
2023-05-25T06:07:55.787Z,15.30
2023-05-25T06:10:23.353Z,12.82
2023-05-25T06:12:50.762Z,16.05
2023-05-25T06:15:18.149Z,14.65
2023-05-25T06:17:46.286Z,14.18
2023-05-25T06:20:15.112Z,14.57
2023-05-25T06:22:42.488Z,14.93
2023-05-25T06:25:10.472Z,14.73
2023-05-25T06:27:38.302Z,14.13
2023-05-25T06:30:06.280Z,12.90
2023-05-25T06:32:33.544Z,12.85
2023-05-25T06:35:00.800Z,13.35
2023-05-25T06:37:35.089Z,11.55
2023-05-25T06:40:02.576Z,10.98
2023-05-25T06:42:29.746Z,10.25
2023-05-25T06:44:57.255Z,8.80
2023-05-25T06:47:24.508Z,9.85
2023-05-25T06:49:51.779Z,10.05
2023-05-25T06:52:19.021Z,11.75
2023-05-25T06:54:46.402Z,8.20
2023-05-25T06:57:13.735Z,8.88
2023-05-25T06:59:40.919Z,9.50
2023-05-25T07:02:08.151Z,9.32
2023-05-25T07:04:35.406Z,9.45
2023-05-25T07:07:02.704Z,10.80
2023-05-25T07:09:30.090Z,9.95
2023-05-25T07:11:57.406Z,8.65
2023-05-25T07:14:24.605Z,11.88
2023-05-25T07:16:52.028Z,8.63
2023-05-25T07:19:19.304Z,7.97
2023-05-25T07:21:46.551Z,8.00
2023-05-25T07:24:13.745Z,7.80
2023-05-25T07:26:41.037Z,8.40
2023-05-25T07:29:08.186Z,7.45
2023-05-25T07:31:36.390Z,9.18
2023-05-25T07:34:03.632Z,8.90
2023-05-25T07:36:31.162Z,9.13
2023-05-25T07:38:58.859Z,9.18
2023-05-25T07:41:26.405Z,8.82
2023-05-25T07:43:53.602Z,9.07
2023-05-25T07:46:25.256Z,9.40
2023-05-25T07:48:54.519Z,9.38
2023-05-25T07:51:26.484Z,10.02
2023-05-25T07:53:55.270Z,9.27
2023-05-25T07:56:23.060Z,9.77
2023-05-25T07:58:50.313Z,9.23
2023-05-25T08:01:17.546Z,9.50
2023-05-25T08:03:49.605Z,8.30
2023-05-25T08:06:21.903Z,8.13
2023-05-25T08:08:50.030Z,9.63
2023-05-25T08:11:17.618Z,8.93
2023-05-25T08:13:44.867Z,8.73
2023-05-25T08:16:12.139Z,9.32
2023-05-25T08:18:40.698Z,9.20
2023-05-25T08:21:07.918Z,7.78
2023-05-25T08:23:35.090Z,8.10
2023-05-25T08:26:05.950Z,7.47
2023-05-25T08:28:39.109Z,7.82
2023-05-25T08:31:06.614Z,8.70
2023-05-25T08:33:33.859Z,9.73
2023-05-25T08:36:01.291Z,8.75
2023-05-25T08:38:28.663Z,7.88
2023-05-25T08:41:05.212Z,8.65
2023-05-25T08:43:33.486Z,8.10
2023-05-25T08:46:08.544Z,7.68
2023-05-25T08:48:41.904Z,6.82
2023-05-25T08:51:16.322Z,7.75
2023-05-25T08:53:44.586Z,6.60
2023-05-25T08:56:19.715Z,6.28
2023-05-25T08:58:56.317Z,7.05
2023-05-25T09:01:28.679Z,7.90
2023-05-25T09:03:57.224Z,8.02
2023-05-25T09:06:27.010Z,8.77
2023-05-25T09:08:54.909Z,7.32
2023-05-25T09:11:35.232Z,7.88
2023-05-25T09:14:05.307Z,7.43
2023-05-25T09:16:33.482Z,7.88
2023-05-25T09:19:00.759Z,7.78
2023-05-25T09:21:27.977Z,8.13
2023-05-25T09:23:55.858Z,8.25
2023-05-25T09:26:23.140Z,8.05
2023-05-25T09:28:50.527Z,8.80
2023-05-25T09:31:17.753Z,9.02
2023-05-25T09:33:46.345Z,9.00
2023-05-25T09:36:15.342Z,10.57
2023-05-25T09:38:42.868Z,8.52
2023-05-25T09:41:11.128Z,8.60
2023-05-25T09:43:44.621Z,8.60
2023-05-25T09:46:14.518Z,9.02
2023-05-25T09:48:43.235Z,9.85
2023-05-25T09:51:11.911Z,9.85
2023-05-25T09:53:39.205Z,9.20
2023-05-25T09:56:06.540Z,8.98
2023-05-25T09:58:33.794Z,9.13
2023-05-25T10:01:01.111Z,8.90
2023-05-25T10:03:28.419Z,8.70
2023-05-25T10:05:56.172Z,9.38
2023-05-25T10:08:27.871Z,9.23
2023-05-25T10:10:56.192Z,8.05
2023-05-25T10:13:24.350Z,9.93
2023-05-25T10:15:54.272Z,10.00
2023-05-25T10:18:32.790Z,9.02
2023-05-25T10:21:05.203Z,9.52
2023-05-25T10:23:44.641Z,7.95
2023-05-25T10:26:16.257Z,8.88
2023-05-25T10:28:46.008Z,8.45
2023-05-25T10:31:14.645Z,9.90
2023-05-25T10:33:43.028Z,8.77
2023-05-25T10:36:13.391Z,10.45
2023-05-25T10:38:41.983Z,10.35
2023-05-25T10:41:10.782Z,10.60
2023-05-25T10:43:39.096Z,9.55
2023-05-25T10:46:07.131Z,9.40
2023-05-25T10:48:38.494Z,9.88
2023-05-25T10:51:08.364Z,8.73
2023-05-25T10:53:37.328Z,9.80
2023-05-25T10:56:07.330Z,9.25
2023-05-25T10:58:34.655Z,9.15
2023-05-25T11:01:09.616Z,9.48
2023-05-25T11:04:14.217Z,9.68
2023-05-25T11:06:41.679Z,12.10
2023-05-25T11:09:24.976Z,9.27
2023-05-25T11:11:53.113Z,13.25
2023-05-25T11:14:26.896Z,12.00
2023-05-25T11:17:32.347Z,10.00
2023-05-25T11:20:06.308Z,11.52
2023-05-25T11:22:40.170Z,10.90
2023-05-25T11:25:36.987Z,11.35
2023-05-25T11:28:08.997Z,10.68
2023-05-25T11:30:38.210Z,13.55
2023-05-25T11:33:07.851Z,11.25
2023-05-25T11:35:38.206Z,11.77
2023-05-25T11:38:08.810Z,12.60
2023-05-25T11:40:39.323Z,11.98
2023-05-25T11:43:09.597Z,12.52
2023-05-25T11:45:38.455Z,12.40
2023-05-25T11:48:06.135Z,13.23
2023-05-25T11:50:34.032Z,13.32
2023-05-25T11:53:06.110Z,11.75
2023-05-25T11:55:33.345Z,11.68
2023-05-25T11:58:00.640Z,12.05
2023-05-25T12:00:28.606Z,14.60
2023-05-25T12:02:56.580Z,14.43
2023-05-25T12:05:24.601Z,14.77
2023-05-25T12:07:52.552Z,12.75
2023-05-25T12:10:19.857Z,12.57
2023-05-25T12:12:49.300Z,12.32
2023-05-25T12:15:24.193Z,16.20
2023-05-25T12:17:53.621Z,15.05
2023-05-25T12:20:21.829Z,13.93
2023-05-25T12:22:49.411Z,11.88
2023-05-25T12:25:23.868Z,16.08
2023-05-25T12:28:11.121Z,16.85
2023-05-25T12:30:38.518Z,15.43
2023-05-25T12:33:06.030Z,15.32
2023-05-25T12:35:55.573Z,14.75
2023-05-25T12:38:22.888Z,18.10
2023-05-25T12:41:08.267Z,15.27
2023-05-25T12:43:43.773Z,16.20
2023-05-25T12:46:11.048Z,16.83
2023-05-25T12:48:38.384Z,14.73
2023-05-25T12:51:05.747Z,17.50
2023-05-25T12:53:50.042Z,16.73
2023-05-25T12:56:17.510Z,17.75
2023-05-25T12:58:45.331Z,17.17
2023-05-25T13:01:12.590Z,17.23
2023-05-25T13:03:39.857Z,16.75
2023-05-25T13:06:07.242Z,17.25
2023-05-25T13:08:34.620Z,16.92
2023-05-25T13:11:03.717Z,17.85
2023-05-25T13:13:31.447Z,17.33
2023-05-25T13:15:58.855Z,17.40
2023-05-25T13:18:26.599Z,18.42
2023-05-25T13:20:56.433Z,19.63
2023-05-25T13:23:24.387Z,17.73
2023-05-25T13:25:51.676Z,19.08
2023-05-25T13:28:18.865Z,18.52
2023-05-25T13:30:46.326Z,16.65
2023-05-25T13:33:14.997Z,16.98
2023-05-25T13:35:57.600Z,17.65
2023-05-25T13:38:25.423Z,18.73
2023-05-25T13:40:52.719Z,16.20
2023-05-25T13:43:19.922Z,19.13
2023-05-25T13:45:47.869Z,17.45
2023-05-25T13:48:15.119Z,17.25
2023-05-25T13:50:43.177Z,18.48
2023-05-25T13:53:11.278Z,16.38
2023-05-25T13:55:41.441Z,16.67
2023-05-25T13:58:08.900Z,19.83
2023-05-25T14:00:36.408Z,17.00
2023-05-25T14:03:03.931Z,15.77
2023-05-25T14:05:31.479Z,15.15
2023-05-25T14:08:02.507Z,14.93
2023-05-25T14:10:29.747Z,15.52
2023-05-25T14:12:57.049Z,14.57
2023-05-25T14:15:25.399Z,14.57
2023-05-25T14:17:54.085Z,14.88
2023-05-25T14:20:25.886Z,15.57
2023-05-25T14:22:53.603Z,15.68
2023-05-25T14:25:21.049Z,16.25
2023-05-25T14:27:48.352Z,16.67
2023-05-25T14:30:15.692Z,16.95
2023-05-25T14:32:42.953Z,17.48
2023-05-25T14:35:10.332Z,16.23
2023-05-25T14:37:37.557Z,19.00
2023-05-25T14:40:05.501Z,17.50
2023-05-25T14:42:32.711Z,16.88
2023-05-25T14:44:59.978Z,15.68
2023-05-25T14:47:27.176Z,15.52
2023-05-25T14:49:55.423Z,16.42
2023-05-25T14:52:22.693Z,14.40
2023-05-25T14:54:49.866Z,15.40
2023-05-25T14:57:17.150Z,15.43
2023-05-25T14:59:44.379Z,15.63
2023-05-25T15:02:11.685Z,17.23
2023-05-25T15:04:39.052Z,16.27
2023-05-25T15:07:06.272Z,15.82
2023-05-25T15:09:33.971Z,15.75
2023-05-25T15:12:02.060Z,14.43
2023-05-25T15:14:29.272Z,17.15
2023-05-25T15:16:57.152Z,17.73
2023-05-25T15:19:24.361Z,17.52
2023-05-25T15:21:51.598Z,15.32
2023-05-25T15:24:18.848Z,16.15
2023-05-25T15:26:46.502Z,16.40
2023-05-25T15:29:13.758Z,16.27
2023-05-25T15:31:41.411Z,16.38
2023-05-25T15:34:11.043Z,16.88
2023-05-25T15:36:38.427Z,18.30
2023-05-25T15:39:08.760Z,19.55
2023-05-25T15:41:36.021Z,17.25
2023-05-25T15:44:03.443Z,16.42
2023-05-25T15:46:30.827Z,16.70
2023-05-25T15:48:58.061Z,16.00
2023-05-25T15:51:25.343Z,16.17
2023-05-25T15:53:54.680Z,16.77
2023-05-25T15:56:22.865Z,16.73
2023-05-25T15:58:50.054Z,17.75
2023-05-25T16:01:17.372Z,17.77
2023-05-25T16:03:44.939Z,17.73
2023-05-25T16:06:12.395Z,16.58
2023-05-25T16:08:39.564Z,14.18
2023-05-25T16:11:06.793Z,13.43
2023-05-25T16:13:33.978Z,14.88
2023-05-25T16:16:01.177Z,14.38
2023-05-25T16:18:28.644Z,17.58
2023-05-25T16:20:57.622Z,16.65
2023-05-25T16:23:25.226Z,16.58
2023-05-25T16:25:52.554Z,14.18
2023-05-25T16:28:19.844Z,14.15
2023-05-25T16:30:47.302Z,11.95
2023-05-25T16:33:14.956Z,13.73
2023-05-25T16:35:42.421Z,14.18
2023-05-25T16:38:10.570Z,14.32
2023-05-25T16:40:37.889Z,13.75
2023-05-25T16:43:05.162Z,14.63
2023-05-25T16:45:32.443Z,17.42
2023-05-25T16:47:59.731Z,14.00
2023-05-25T16:50:27.013Z,14.52
2023-05-25T16:52:54.238Z,14.23
2023-05-25T16:55:21.539Z,12.93
2023-05-25T16:57:48.796Z,12.60
2023-05-25T17:00:16.507Z,15.18
2023-05-25T17:02:43.771Z,12.57
2023-05-25T17:05:11.175Z,14.60
2023-05-25T17:07:39.313Z,12.95
2023-05-25T17:10:08.040Z,13.35
2023-05-25T17:12:35.403Z,13.40
2023-05-25T17:15:02.852Z,14.07
2023-05-25T17:17:30.110Z,13.75
2023-05-25T17:19:57.391Z,15.30
2023-05-25T17:22:24.653Z,14.13
2023-05-25T17:24:51.891Z,16.60
2023-05-25T17:27:19.111Z,14.77
2023-05-25T17:29:46.347Z,14.73
2023-05-25T17:32:13.678Z,15.82
2023-05-25T17:34:41.007Z,21.88
2023-05-25T17:37:08.294Z,18.00
2023-05-25T17:39:36.197Z,15.20
2023-05-25T17:42:03.465Z,18.35
2023-05-25T17:44:30.871Z,19.42
2023-05-25T17:46:58.033Z,15.10
2023-05-25T17:49:25.380Z,14.10
2023-05-25T17:51:52.905Z,15.77
2023-05-25T17:54:25.541Z,13.93
2023-05-25T17:56:53.808Z,14.27
2023-05-25T17:59:21.082Z,15.15
2023-05-25T18:01:48.465Z,14.25
2023-05-25T18:04:15.847Z,14.55
2023-05-25T18:06:43.207Z,17.98
2023-05-25T18:09:10.707Z,16.80
2023-05-25T18:11:37.951Z,18.00
2023-05-25T18:14:05.336Z,16.77
2023-05-25T18:16:32.821Z,18.02
2023-05-25T18:19:00.216Z,13.85
2023-05-25T18:21:27.580Z,13.68
2023-05-25T18:23:54.944Z,16.92
2023-05-25T18:26:22.474Z,17.85
2023-05-25T18:28:49.866Z,17.13
2023-05-25T18:31:17.148Z,15.02
2023-05-25T18:33:44.383Z,14.73
2023-05-25T18:36:11.639Z,16.85
2023-05-25T18:38:38.837Z,14.25
2023-05-25T18:41:06.131Z,14.77
2023-05-25T18:43:33.317Z,14.85
2023-05-25T18:46:00.667Z,12.85
2023-05-25T18:48:28.576Z,14.05
2023-05-25T18:50:55.883Z,15.63
2023-05-25T18:53:23.132Z,15.23
2023-05-25T18:55:50.456Z,14.57
2023-05-25T18:58:17.750Z,16.65
2023-05-25T19:00:44.944Z,15.43
2023-05-25T19:03:12.208Z,14.82
2023-05-25T19:05:39.506Z,15.57
2023-05-25T19:08:06.750Z,14.35
2023-05-25T19:10:34.126Z,15.18
2023-05-25T19:13:02.397Z,16.88
2023-05-25T19:15:29.672Z,14.85
2023-05-25T19:17:56.937Z,15.15
2023-05-25T19:20:24.257Z,17.40
2023-05-25T19:22:51.642Z,14.27
2023-05-25T19:25:22.709Z,14.30
2023-05-25T19:27:50.535Z,14.70
2023-05-25T19:30:17.796Z,15.05
2023-05-25T19:32:45.049Z,15.57
2023-05-25T19:35:12.336Z,14.40
2023-05-25T19:37:41.225Z,13.18
2023-05-25T19:40:09.577Z,13.80
2023-05-25T19:42:37.439Z,13.95
2023-05-25T19:45:05.628Z,14.70
2023-05-25T19:47:32.950Z,15.23
2023-05-25T19:50:00.613Z,14.48
2023-05-25T19:52:27.909Z,15.60
2023-05-25T19:54:55.214Z,14.32
2023-05-25T19:57:22.525Z,15.82
2023-05-25T19:59:51.079Z,16.23
2023-05-25T20:02:18.464Z,15.43
2023-05-25T20:04:45.846Z,15.70
2023-05-25T20:07:13.150Z,15.48
2023-05-25T20:09:40.540Z,15.52
2023-05-25T20:12:08.042Z,16.27
2023-05-25T20:14:35.360Z,17.15
2023-05-25T20:17:02.881Z,18.25
2023-05-25T20:19:30.288Z,16.58
2023-05-25T20:21:59.551Z,16.92
2023-05-25T20:24:27.000Z,20.23
2023-05-25T20:26:56.732Z,22.38
2023-05-25T20:29:24.230Z,18.02
2023-05-25T20:31:52.532Z,16.75
2023-05-25T20:34:19.795Z,17.15
2023-05-25T20:36:46.991Z,18.65
2023-05-25T20:39:14.278Z,17.10
2023-05-25T20:41:41.627Z,18.00
2023-05-25T20:44:10.029Z,19.35
2023-05-25T20:46:37.381Z,19.08
2023-05-25T20:49:04.636Z,17.42
2023-05-25T20:51:32.687Z,18.77
2023-05-25T20:53:59.897Z,17.63
2023-05-25T20:56:27.267Z,18.42
2023-05-25T20:58:54.546Z,19.02
